Iles-de-la-Madeleine, Canada
Current Conditions -  °F | °C
As of 5:00 PM on Saturday 25 Oct 2014 (Local Time) from CYGR Reporting Station
Drizzle Drizzle  
Wind Chill: 43°   Ceiling: 200
Heat Index: 48°   Visibility: 2mi
Dew Point: 48°   Wind: 13mph
Humidity: 100%   Direction: 70°ENE
Pressure: 29.44"   Gusts: NA
Location:  47.42°N, 61.77°W
Report Text: CYGR 252000Z 07011KT 2SM -DZ BR OVC002 09/09 A2944 RMK FG2SF6 VIS VRB 1-3 SLP970
Loading
Personal Weather Stations






























Interactive Weather Map New forecast layout! Learn more

10-Day Weather Forecast

Advertisements
Track Severe Weather on mobile